createdAt,value
2018-06-05T00:02:26.988Z,21.20
2018-06-05T00:04:58.526Z,20.43
2018-06-05T00:07:30.412Z,21.80
2018-06-05T00:10:02.398Z,21.40
2018-06-05T00:12:33.523Z,21.33
2018-06-05T00:15:05.305Z,21.27
2018-06-05T00:17:36.648Z,23.30
2018-06-05T00:20:08.802Z,21.50
2018-06-05T00:22:39.739Z,22.23
2018-06-05T00:25:10.994Z,21.37
2018-06-05T00:27:43.069Z,21.50
2018-06-05T00:30:14.406Z,23.20
2018-06-05T00:32:45.628Z,22.20
2018-06-05T00:35:17.621Z,21.80
2018-06-05T00:37:49.598Z,21.70
2018-06-05T00:40:20.871Z,21.80
2018-06-05T00:42:51.385Z,23.33
2018-06-05T00:45:23.352Z,23.00
2018-06-05T00:47:54.211Z,24.20
2018-06-05T00:50:25.405Z,25.30
2018-06-05T00:52:57.714Z,24.20
2018-06-05T00:55:29.616Z,25.77
2018-06-05T00:58:01.528Z,23.53
2018-06-05T01:00:32.841Z,24.10
2018-06-05T01:03:04.293Z,23.50
2018-06-05T01:05:36.222Z,23.23
2018-06-05T01:08:07.735Z,22.47
2018-06-05T01:10:38.763Z,21.80
2018-06-05T01:13:10.074Z,21.97
2018-06-05T01:15:42.137Z,25.17
2018-06-05T01:18:13.305Z,24.77
2018-06-05T01:20:44.550Z,25.30
2018-06-05T01:23:22.843Z,23.07
2018-06-05T01:25:54.803Z,24.17
2018-06-05T01:28:26.197Z,22.67
2018-06-05T01:30:57.633Z,23.00
2018-06-05T01:33:29.214Z,23.10
2018-06-05T01:36:01.245Z,22.63
2018-06-05T01:38:32.185Z,23.53
2018-06-05T01:41:03.597Z,22.97
2018-06-05T01:43:35.709Z,24.37
2018-06-05T01:46:07.928Z,25.67
2018-06-05T01:48:39.165Z,24.60
2018-06-05T01:51:10.171Z,25.70
2018-06-05T01:53:42.619Z,25.70
2018-06-05T01:56:14.583Z,26.20
2018-06-05T01:58:46.032Z,27.57
2018-06-05T02:01:17.377Z,27.60
2018-06-05T02:03:49.216Z,27.93
2018-06-05T02:06:20.676Z,26.13
2018-06-05T02:08:52.050Z,26.57
2018-06-05T02:11:23.856Z,25.13
2018-06-05T02:13:55.902Z,25.50
2018-06-05T02:16:27.206Z,24.67
2018-06-05T02:18:58.504Z,26.13
2018-06-05T02:21:30.214Z,28.20
2018-06-05T02:24:02.204Z,25.33
2018-06-05T02:26:33.546Z,27.03
2018-06-05T02:29:04.974Z,26.57
2018-06-05T02:31:37.138Z,26.53
2018-06-05T02:34:09.207Z,25.73
2018-06-05T02:36:40.504Z,25.57
2018-06-05T02:39:12.351Z,27.17
2018-06-05T02:41:44.432Z,25.30
2018-06-05T02:44:15.692Z,27.97
2018-06-05T02:46:47.181Z,28.53
2018-06-05T02:49:19.770Z,28.47
2018-06-05T02:51:50.070Z,26.63
2018-06-05T02:54:21.408Z,24.57
2018-06-05T02:56:53.176Z,25.20
2018-06-05T02:59:25.147Z,26.03
2018-06-05T03:01:57.072Z,25.67
2018-06-05T03:04:28.288Z,25.37
2018-06-05T03:06:59.777Z,25.20
2018-06-05T03:09:31.392Z,24.90
2018-06-05T03:12:03.278Z,24.00
2018-06-05T03:14:34.266Z,25.23
2018-06-05T03:17:05.530Z,26.67
2018-06-05T03:19:37.506Z,28.30
2018-06-05T03:22:08.416Z,28.00
2018-06-05T03:24:40.682Z,27.57
2018-06-05T03:27:11.812Z,26.67
2018-06-05T03:29:43.494Z,25.47
2018-06-05T03:32:14.812Z,26.10
2018-06-05T03:34:46.186Z,27.63
2018-06-05T03:37:20.279Z,26.10
2018-06-05T03:39:52.181Z,24.77
2018-06-05T03:42:23.638Z,27.20
2018-06-05T03:44:54.810Z,25.40
2018-06-05T03:47:26.980Z,28.73
2018-06-05T03:49:59.066Z,28.27
2018-06-05T03:52:30.803Z,27.27
2018-06-05T03:55:02.258Z,27.77
2018-06-05T03:57:34.351Z,27.53
2018-06-05T04:00:06.912Z,28.33
2018-06-05T04:02:38.284Z,28.67
2018-06-05T04:05:09.689Z,27.00
2018-06-05T04:07:41.818Z,28.57
2018-06-05T04:10:13.026Z,28.03
2018-06-05T04:12:44.144Z,29.17
2018-06-05T04:15:16.348Z,27.67
2018-06-05T04:17:48.780Z,26.50
2018-06-05T04:20:20.266Z,23.87
2018-06-05T04:22:51.907Z,24.00
2018-06-05T04:25:24.310Z,23.83
2018-06-05T04:27:56.334Z,24.63
2018-06-05T04:30:27.720Z,23.63
2018-06-05T04:32:59.396Z,23.37
2018-06-05T04:35:38.034Z,23.17
2018-06-05T04:38:09.878Z,22.47
2018-06-05T04:40:41.263Z,21.87
2018-06-05T04:43:12.602Z,23.63
2018-06-05T04:45:44.382Z,22.13
2018-06-05T04:48:15.960Z,22.23
2018-06-05T04:50:47.293Z,20.20
2018-06-05T04:53:19.388Z,20.93
2018-06-05T04:55:51.002Z,23.10
2018-06-05T04:58:22.971Z,22.50
2018-06-05T05:00:54.565Z,21.67
2018-06-05T05:03:26.939Z,21.00
2018-06-05T05:05:59.362Z,21.73
2018-06-05T05:08:32.038Z,20.27
2018-06-05T05:11:03.180Z,22.10
2018-06-05T05:13:34.954Z,21.53
2018-06-05T05:16:07.536Z,22.20
2018-06-05T05:18:39.484Z,22.00
2018-06-05T05:21:11.144Z,22.23
2018-06-05T05:23:43.518Z,22.47
2018-06-05T05:26:16.219Z,21.27
2018-06-05T05:28:47.589Z,22.97
2018-06-05T05:31:19.594Z,24.27
2018-06-05T05:33:51.878Z,25.07
2018-06-05T05:36:23.267Z,24.13
2018-06-05T05:38:54.869Z,25.97
2018-06-05T05:41:26.402Z,23.27
2018-06-05T05:43:58.674Z,23.03
2018-06-05T05:46:30.246Z,29.27
2018-06-05T05:49:01.637Z,39.17
2018-06-05T05:51:33.376Z,40.67
2018-06-05T05:54:04.844Z,41.77
2018-06-05T05:56:36.246Z,41.60
2018-06-05T05:59:07.940Z,40.47
2018-06-05T06:01:40.081Z,40.33
2018-06-05T06:04:12.108Z,43.20
2018-06-05T06:06:44.420Z,42.10
2018-06-05T06:09:16.469Z,42.90
2018-06-05T06:11:48.644Z,42.63
2018-06-05T06:14:20.276Z,44.30
2018-06-05T06:16:51.750Z,45.67
2018-06-05T06:19:23.562Z,43.87
2018-06-05T06:21:55.830Z,43.57
2018-06-05T06:24:27.465Z,43.20
2018-06-05T06:26:59.054Z,41.77
2018-06-05T06:29:30.728Z,42.23
2018-06-05T06:32:02.590Z,43.93
2018-06-05T06:34:34.163Z,44.10
2018-06-05T06:37:05.541Z,43.00
2018-06-05T06:39:37.846Z,43.30
2018-06-05T06:42:08.493Z,45.10
2018-06-05T06:44:39.952Z,45.07
2018-06-05T06:47:11.768Z,43.17
2018-06-05T06:49:43.793Z,47.00
2018-06-05T06:52:15.973Z,45.60
2018-06-05T06:54:47.542Z,45.43
2018-06-05T06:57:20.181Z,43.27
2018-06-05T06:59:52.520Z,45.40
2018-06-05T07:02:24.039Z,42.67
2018-06-05T07:04:55.640Z,43.37
2018-06-05T07:07:27.173Z,39.87
2018-06-05T07:09:59.416Z,39.27
2018-06-05T07:12:30.821Z,40.60
2018-06-05T07:15:02.284Z,38.87
2018-06-05T07:17:34.652Z,39.20
2018-06-05T07:20:07.674Z,39.10
2018-06-05T07:22:39.301Z,40.17
2018-06-05T07:25:10.800Z,39.73
2018-06-05T07:27:43.138Z,39.47
2018-06-05T07:30:14.625Z,40.97
2018-06-05T07:32:47.374Z,40.03
2018-06-05T07:35:19.577Z,39.17
2018-06-05T07:37:51.221Z,39.50
2018-06-05T07:40:22.723Z,40.20
2018-06-05T07:42:54.384Z,40.10
2018-06-05T07:45:31.781Z,41.10
2018-06-05T07:48:02.461Z,41.57
2018-06-05T07:50:33.856Z,41.73
2018-06-05T07:53:05.205Z,42.10
2018-06-05T07:55:36.920Z,41.73
2018-06-05T07:58:09.920Z,41.97
2018-06-05T08:00:41.581Z,38.20
2018-06-05T08:03:13.164Z,40.80
2018-06-05T08:05:45.413Z,40.00
2018-06-05T08:08:16.808Z,41.40
2018-06-05T08:10:49.222Z,40.03
2018-06-05T08:13:21.781Z,41.27
2018-06-05T08:15:54.077Z,41.17
2018-06-05T08:18:25.664Z,43.90
2018-06-05T08:20:57.156Z,43.97
2018-06-05T08:23:29.252Z,44.13
2018-06-05T08:26:01.543Z,44.27
2018-06-05T08:28:33.241Z,49.87
2018-06-05T08:31:04.438Z,49.70
2018-06-05T08:33:36.612Z,49.33
2018-06-05T08:36:08.800Z,49.33
2018-06-05T08:38:40.922Z,47.30
2018-06-05T08:41:12.562Z,47.37
2018-06-05T08:43:44.901Z,47.83
2018-06-05T08:46:17.028Z,48.97
2018-06-05T08:48:49.020Z,51.53
2018-06-05T08:51:20.346Z,51.97
2018-06-05T08:53:51.814Z,49.80
2018-06-05T08:56:23.427Z,49.77
2018-06-05T08:58:55.214Z,48.43
2018-06-05T09:01:26.639Z,46.57
2018-06-05T09:03:59.212Z,47.13
2018-06-05T09:06:30.760Z,42.30
2018-06-05T09:09:02.440Z,42.13
2018-06-05T09:11:34.515Z,44.07
2018-06-05T09:14:06.910Z,44.97
2018-06-05T09:16:38.542Z,44.70
2018-06-05T09:19:10.090Z,40.53
2018-06-05T09:21:41.741Z,41.03
2018-06-05T09:24:13.942Z,40.70
2018-06-05T09:26:45.856Z,43.03
2018-06-05T09:29:18.103Z,44.37
2018-06-05T09:31:49.694Z,46.23
2018-06-05T09:34:26.348Z,45.80
2018-06-05T09:36:57.803Z,43.30
2018-06-05T09:39:28.936Z,43.77
2018-06-05T09:41:59.674Z,42.87
2018-06-05T09:44:30.108Z,40.10
2018-06-05T09:47:02.682Z,41.67
2018-06-05T09:49:34.572Z,38.77
2018-06-05T09:52:07.655Z,39.73
2018-06-05T09:54:39.062Z,40.33
2018-06-05T09:57:10.616Z,38.67
2018-06-05T09:59:43.286Z,39.07
2018-06-05T10:02:14.841Z,36.90
2018-06-05T10:04:46.135Z,36.13
2018-06-05T10:07:19.037Z,37.23
2018-06-05T10:09:51.090Z,40.35
2018-06-05T10:12:23.026Z,41.40
2018-06-05T10:14:55.089Z,44.38
2018-06-05T10:17:27.319Z,47.33
2018-06-05T10:19:59.359Z,46.75
2018-06-05T10:22:30.741Z,50.30
2018-06-05T10:25:02.125Z,51.30
2018-06-05T10:27:34.368Z,51.90
2018-06-05T10:30:06.645Z,52.13
2018-06-05T10:32:41.411Z,52.63
2018-06-05T10:35:12.985Z,53.00
2018-06-05T10:37:44.642Z,53.10
2018-06-05T10:40:16.707Z,55.52
2018-06-05T10:42:49.354Z,55.35
2018-06-05T10:45:22.870Z,53.60
2018-06-05T10:47:55.569Z,56.58
2018-06-05T10:50:27.636Z,55.92
2018-06-05T10:52:59.708Z,54.80
2018-06-05T10:55:32.961Z,55.33
2018-06-05T10:58:05.489Z,53.05
2018-06-05T11:00:36.469Z,50.85
2018-06-05T11:03:08.801Z,50.25
2018-06-05T11:05:42.149Z,53.50
2018-06-05T11:08:14.815Z,52.98
2018-06-05T11:10:48.116Z,54.88
2018-06-05T11:13:21.553Z,53.05
2018-06-05T11:15:54.475Z,53.68
2018-06-05T11:18:26.575Z,52.20
2018-06-05T11:20:58.753Z,52.38
2018-06-05T11:23:31.821Z,50.23
2018-06-05T11:26:04.739Z,50.80
2018-06-05T11:28:36.892Z,54.27
2018-06-05T11:31:09.547Z,55.78
2018-06-05T11:33:42.491Z,56.53
2018-06-05T11:36:16.250Z,55.92
2018-06-05T11:38:48.483Z,54.73
2018-06-05T11:41:21.583Z,49.35
2018-06-05T11:43:54.268Z,47.20
2018-06-05T11:46:27.002Z,43.15
2018-06-05T11:49:00.182Z,45.45
2018-06-05T11:51:32.997Z,46.95
2018-06-05T11:54:05.412Z,43.40
2018-06-05T11:56:38.630Z,44.20
2018-06-05T11:59:10.799Z,42.58
2018-06-05T12:01:43.479Z,44.38
2018-06-05T12:04:17.640Z,42.78
2018-06-05T12:06:50.830Z,44.70
2018-06-05T12:09:24.329Z,43.55
2018-06-05T12:11:57.130Z,41.08
2018-06-05T12:14:30.327Z,44.50
2018-06-05T12:17:02.596Z,42.03
2018-06-05T12:19:35.566Z,42.43
2018-06-05T12:22:08.251Z,42.50
2018-06-05T12:24:40.300Z,39.18
2018-06-05T12:27:12.641Z,40.65
2018-06-05T12:29:44.497Z,42.08
2018-06-05T12:32:16.369Z,41.15
2018-06-05T12:34:48.525Z,39.95
2018-06-05T12:37:21.130Z,38.70
2018-06-05T12:39:54.316Z,39.75
2018-06-05T12:42:26.256Z,41.08
2018-06-05T12:44:58.292Z,41.75
2018-06-05T12:47:30.917Z,43.80
2018-06-05T12:50:03.923Z,42.95
2018-06-05T12:52:36.170Z,44.67
2018-06-05T12:55:08.352Z,44.18
2018-06-05T12:57:41.125Z,42.40
2018-06-05T13:00:12.638Z,44.48
2018-06-05T13:02:44.816Z,45.03
2018-06-05T13:05:17.528Z,42.85
2018-06-05T13:07:50.440Z,43.95
2018-06-05T13:10:22.628Z,42.65
2018-06-05T13:12:54.630Z,43.28
2018-06-05T13:15:27.180Z,44.55
2018-06-05T13:18:00.004Z,45.80
2018-06-05T13:20:33.665Z,41.42
2018-06-05T13:23:06.977Z,42.75
2018-06-05T13:25:41.004Z,41.98
2018-06-05T13:28:14.892Z,43.45
2018-06-05T13:30:47.350Z,43.83
2018-06-05T13:33:21.424Z,44.98
2018-06-05T13:35:54.470Z,43.30
2018-06-05T13:38:26.872Z,44.90
2018-06-05T13:40:59.409Z,43.75
2018-06-05T13:43:32.240Z,45.98
2018-06-05T13:46:04.422Z,44.23
2018-06-05T13:48:36.547Z,44.90
2018-06-05T13:51:08.799Z,44.45
2018-06-05T13:53:41.739Z,43.68
2018-06-05T13:56:14.546Z,44.42
2018-06-05T13:58:47.583Z,43.65
2018-06-05T14:01:19.887Z,44.42
2018-06-05T14:03:52.455Z,46.10
2018-06-05T14:06:24.548Z,42.53
2018-06-05T14:08:57.203Z,40.85
2018-06-05T14:11:39.186Z,40.78
2018-06-05T14:14:12.283Z,38.15
2018-06-05T14:16:46.593Z,38.78
2018-06-05T14:19:19.171Z,38.05
2018-06-05T14:21:51.969Z,39.23
2018-06-05T14:24:23.935Z,38.85
2018-06-05T14:26:56.140Z,37.50
2018-06-05T14:29:29.400Z,35.85
2018-06-05T14:32:01.356Z,38.40
2018-06-05T14:34:33.417Z,37.53
2018-06-05T14:37:05.563Z,37.03
2018-06-05T14:39:38.757Z,36.63
2018-06-05T14:42:11.388Z,35.60
2018-06-05T14:44:43.416Z,37.88
2018-06-05T14:50:25.279Z,37.25
2018-06-05T14:52:58.308Z,36.93
2018-06-05T14:55:30.977Z,35.33
2018-06-05T14:58:04.411Z,36.17
2018-06-05T15:00:36.541Z,35.20
2018-06-05T15:03:08.583Z,36.70
2018-06-05T15:05:41.823Z,34.90
2018-06-05T15:08:14.215Z,33.45
2018-06-05T15:10:46.369Z,34.95
2018-06-05T15:13:17.642Z,34.65
2018-06-05T15:15:50.393Z,33.20
2018-06-05T15:18:22.529Z,33.28
2018-06-05T15:20:54.457Z,33.48
2018-06-05T15:23:27.143Z,35.00
2018-06-05T15:25:59.885Z,35.25
2018-06-05T15:28:31.825Z,34.60
2018-06-05T15:31:03.787Z,34.05
2018-06-05T15:33:36.075Z,32.40
2018-06-05T15:36:09.030Z,33.73
2018-06-05T15:38:41.041Z,32.08
2018-06-05T15:41:14.235Z,29.75
2018-06-05T15:43:46.814Z,29.85
2018-06-05T15:46:19.159Z,31.82
2018-06-05T15:48:51.912Z,30.00
2018-06-05T15:51:24.562Z,28.73
2018-06-05T15:53:57.701Z,31.02
2018-06-05T15:56:29.711Z,28.35
2018-06-05T15:59:01.437Z,25.57
2018-06-05T16:01:33.941Z,27.00
2018-06-05T16:04:06.999Z,26.80
2018-06-05T16:06:39.129Z,28.80
2018-06-05T16:09:11.347Z,29.90
2018-06-05T16:11:43.981Z,28.07
2018-06-05T16:14:15.929Z,26.55
2018-06-05T16:16:47.993Z,27.30
2018-06-05T16:19:20.846Z,25.85
2018-06-05T16:21:53.531Z,26.12
2018-06-05T16:24:25.696Z,24.70
2018-06-05T16:26:57.757Z,24.40
2018-06-05T16:29:30.468Z,24.35
2018-06-05T16:32:02.487Z,24.77
2018-06-05T16:34:34.421Z,23.38
2018-06-05T16:37:06.647Z,23.30
2018-06-05T16:39:40.099Z,24.05
2018-06-05T16:42:11.405Z,23.98
2018-06-05T16:44:43.017Z,22.22
2018-06-05T16:47:15.159Z,21.90
2018-06-05T16:49:47.957Z,21.95
2018-06-05T16:52:20.005Z,21.55
2018-06-05T16:54:52.052Z,19.98
2018-06-05T16:57:25.988Z,20.57
2018-06-05T16:59:58.699Z,20.40
2018-06-05T17:02:32.055Z,18.90
2018-06-05T17:05:04.169Z,20.50
2018-06-05T17:07:36.429Z,21.35
2018-06-05T17:10:10.142Z,20.95
2018-06-05T17:12:42.403Z,20.32
2018-06-05T17:15:14.478Z,20.08
2018-06-05T17:17:45.809Z,20.77
2018-06-05T17:20:17.937Z,19.35
2018-06-05T17:22:49.856Z,18.30
2018-06-05T17:25:25.474Z,19.20
2018-06-05T17:27:58.147Z,19.75
2018-06-05T17:30:30.545Z,17.98
2018-06-05T17:33:03.204Z,18.55
2018-06-05T17:35:36.576Z,18.55
2018-06-05T17:38:08.774Z,18.00
2018-06-05T17:40:40.952Z,17.57
2018-06-05T17:43:13.507Z,19.42
2018-06-05T17:45:45.607Z,18.17
2018-06-05T17:48:17.549Z,18.48
2018-06-05T17:50:49.676Z,18.62
2018-06-05T17:53:21.151Z,19.10
2018-06-05T17:55:53.478Z,19.42
2018-06-05T17:58:25.448Z,19.37
2018-06-05T18:00:56.933Z,19.65
2018-06-05T18:03:28.865Z,19.00
2018-06-05T18:06:01.428Z,18.87
2018-06-05T18:08:47.511Z,19.07
2018-06-05T18:11:20.179Z,19.47
2018-06-05T18:13:52.299Z,17.40
2018-06-05T18:16:23.970Z,20.63
2018-06-05T18:18:55.420Z,19.37
2018-06-05T18:21:27.478Z,18.57
2018-06-05T18:23:58.902Z,19.00
2018-06-05T18:26:31.346Z,19.53
2018-06-05T18:29:02.923Z,18.57
2018-06-05T18:31:35.097Z,20.13
2018-06-05T18:34:06.510Z,19.70
2018-06-05T18:36:38.039Z,18.87
2018-06-05T18:39:09.380Z,17.10
2018-06-05T18:41:41.796Z,17.07
2018-06-05T18:44:13.150Z,16.97
2018-06-05T18:46:44.610Z,18.23
2018-06-05T18:49:17.020Z,19.10
2018-06-05T18:51:49.101Z,21.30
2018-06-05T18:54:22.970Z,19.63
2018-06-05T18:56:54.531Z,18.93
2018-06-05T18:59:26.698Z,17.70
2018-06-05T19:01:59.192Z,19.60
2018-06-05T19:04:30.562Z,18.57
2018-06-05T19:07:02.064Z,19.90
2018-06-05T19:09:35.355Z,21.57
2018-06-05T19:12:07.900Z,20.73
2018-06-05T19:14:39.906Z,21.77
2018-06-05T19:17:11.990Z,21.70
2018-06-05T19:19:44.362Z,21.87
2018-06-05T19:22:16.264Z,22.10
2018-06-05T19:24:48.198Z,22.87
2018-06-05T19:27:20.646Z,21.33
2018-06-05T19:29:53.262Z,22.77
2018-06-05T19:32:26.032Z,23.33
2018-06-05T19:34:57.652Z,23.03
2018-06-05T19:37:29.664Z,22.07
2018-06-05T19:40:01.661Z,23.43
2018-06-05T19:42:33.031Z,23.53
2018-06-05T19:45:04.424Z,25.37
2018-06-05T19:47:35.838Z,24.43
2018-06-05T19:50:08.115Z,25.70
2018-06-05T19:52:39.666Z,27.63
2018-06-05T19:55:11.428Z,27.40
2018-06-05T19:57:43.746Z,27.93
2018-06-05T20:00:14.407Z,28.33
2018-06-05T20:02:45.936Z,29.77
2018-06-05T20:05:18.289Z,29.17
2018-06-05T20:07:50.648Z,28.90
2018-06-05T20:10:22.152Z,26.97
2018-06-05T20:12:55.077Z,28.13
2018-06-05T20:15:27.116Z,27.93
2018-06-05T20:17:58.767Z,28.47
2018-06-05T20:20:30.164Z,27.67
2018-06-05T20:23:01.681Z,29.17
2018-06-05T20:25:33.946Z,26.97
2018-06-05T20:28:06.156Z,28.37
2018-06-05T20:30:38.714Z,27.90
2018-06-05T20:33:11.270Z,28.93
2018-06-05T20:35:43.071Z,29.37
2018-06-05T20:38:15.736Z,28.23
2018-06-05T20:40:47.172Z,31.77
2018-06-05T20:43:19.347Z,31.63
2018-06-05T20:45:51.466Z,30.53
2018-06-05T20:48:23.964Z,30.93
2018-06-05T20:50:55.504Z,32.73
2018-06-05T20:53:27.464Z,31.87
2018-06-05T20:55:59.677Z,30.93
2018-06-05T20:58:31.214Z,31.50
2018-06-05T21:01:02.758Z,31.40
2018-06-05T21:03:35.108Z,33.13
2018-06-05T21:06:07.605Z,33.20
2018-06-05T21:08:39.253Z,31.10
2018-06-05T21:11:10.706Z,32.03
2018-06-05T21:13:42.074Z,32.13
2018-06-05T21:16:14.071Z,31.90
2018-06-05T21:18:45.585Z,33.43
2018-06-05T21:21:17.505Z,34.53
2018-06-05T21:23:49.499Z,35.60
2018-06-05T21:26:20.946Z,36.00
2018-06-05T21:28:52.568Z,36.00
2018-06-05T21:31:24.652Z,36.03
2018-06-05T21:33:56.399Z,36.87
2018-06-05T21:36:27.943Z,35.07
2018-06-05T21:38:59.281Z,35.17
2018-06-05T21:41:31.027Z,36.37
2018-06-05T21:44:02.686Z,33.90
2018-06-05T21:46:35.358Z,35.37
2018-06-05T21:49:06.970Z,33.93
2018-06-05T21:51:38.957Z,32.97
2018-06-05T21:54:10.919Z,33.57
2018-06-05T21:56:42.473Z,32.83
2018-06-05T21:59:13.906Z,36.23
2018-06-05T22:01:45.909Z,36.07
2018-06-05T22:04:17.105Z,33.77
2018-06-05T22:06:52.724Z,35.03
2018-06-05T22:09:24.960Z,36.40
2018-06-05T22:11:56.966Z,35.03
2018-06-05T22:14:27.586Z,38.17
2018-06-05T22:16:58.975Z,35.10
2018-06-05T22:19:30.920Z,34.70
2018-06-05T22:22:02.825Z,34.17
2018-06-05T22:24:34.118Z,36.40
2018-06-05T22:27:05.545Z,33.23
2018-06-05T22:29:37.656Z,34.57
2018-06-05T22:32:09.141Z,35.97
2018-06-05T22:34:40.350Z,34.83
2018-06-05T22:37:11.801Z,35.37
2018-06-05T22:39:43.961Z,36.07
2018-06-05T22:42:15.194Z,35.90
2018-06-05T22:44:46.505Z,35.23
2018-06-05T22:47:18.345Z,36.53
2018-06-05T22:49:50.663Z,40.43
2018-06-05T22:52:21.807Z,39.07
2018-06-05T22:54:53.268Z,38.10
2018-06-05T22:57:25.181Z,36.97
2018-06-05T22:59:57.086Z,39.47
2018-06-05T23:02:28.556Z,36.90
2018-06-05T23:04:59.536Z,37.60
2018-06-05T23:07:31.431Z,39.77
2018-06-05T23:10:03.517Z,36.50
2018-06-05T23:12:34.956Z,35.83
2018-06-05T23:15:06.728Z,38.03
2018-06-05T23:17:38.839Z,37.23
2018-06-05T23:20:10.397Z,36.73
2018-06-05T23:22:41.597Z,36.10
2018-06-05T23:25:12.946Z,36.50
2018-06-05T23:27:45.158Z,37.70
2018-06-05T23:30:16.557Z,36.73
2018-06-05T23:32:47.841Z,36.60
2018-06-05T23:35:19.865Z,37.23
2018-06-05T23:37:51.827Z,36.70
2018-06-05T23:40:23.095Z,35.30
2018-06-05T23:42:54.470Z,36.53
2018-06-05T23:45:26.584Z,36.03
2018-06-05T23:47:57.835Z,35.77
2018-06-05T23:50:29.139Z,35.97
2018-06-05T23:53:00.414Z,33.90
2018-06-05T23:55:32.598Z,36.70
2018-06-05T23:58:04.599Z,33.73
